Time;durP1;ratioP1;P1;durP2;ratioP2;P2;SDS_P1;SDS_P2;PMS_P1;PMS_P2;Temp;Humidity;BMP_temperature;BMP_pressure;BME280_temperature;BME280_humidity;BME280_pressure;Samples;Min_cycle;Max_cycle;Signal;HPM_P1;HPM_P2
2023/04/18 00:00:55;;;;;;;18.63;11.30;;;;;;;;;;5117760;28;20055;-70
2023/04/18 00:03:40;;;;;;;22.90;11.30;;;;;;;;;;5118634;28;20020;-71
2023/04/18 00:06:28;;;;;;;18.27;10.50;;;;;;;;;;5117677;28;20359;-71
2023/04/18 00:09:14;;;;;;;20.77;11.32;;;;;;;;;;5104654;28;20067;-71
2023/04/18 00:12:00;;;;;;;22.85;10.85;;;;;;;;;;5118544;28;20341;-71
2023/04/18 00:14:49;;;;;;;19.88;10.98;;;;;;;;;;5103082;28;20027;-71
2023/04/18 00:17:37;;;;;;;17.20;10.48;;;;;;;;;;5117782;28;20084;-71
2023/04/18 00:20:25;;;;;;;17.25;10.57;;;;;;;;;;5118225;28;20063;-71
2023/04/18 00:23:12;;;;;;;21.63;10.35;;;;;;;;;;5119134;28;20059;-70
2023/04/18 00:25:58;;;;;;;16.60;10.35;;;;;;;;;;5119274;28;20020;-70
2023/04/18 00:28:43;;;;;;;15.40;9.55;;;;;;;;;;5117861;28;20024;-71
2023/04/18 00:31:29;;;;;;;19.73;10.02;;;;;;;;;;5119419;28;20026;-71
2023/04/18 00:34:15;;;;;;;21.58;10.15;;;;;;;;;;5117663;28;20387;-71
2023/04/18 00:37:00;;;;;;;16.60;9.45;;;;;;;;;;5116255;28;20027;-71
2023/04/18 00:39:46;;;;;;;21.08;9.73;;;;;;;;;;5118779;28;20048;-71
2023/04/18 00:42:32;;;;;;;19.88;10.80;;;;;;;;;;5118694;28;20031;-71
2023/04/18 00:45:17;;;;;;;23.48;10.43;;;;;;;;;;5118044;28;20028;-72
2023/04/18 00:48:03;;;;;;;18.52;10.38;;;;;;;;;;5095595;28;20027;-71
2023/04/18 00:50:48;;;;;;;16.63;10.10;;;;;;;;;;5118248;28;20531;-71
2023/04/18 00:53:34;;;;;;;19.60;10.10;;;;;;;;;;5103090;28;20062;-70
2023/04/18 00:56:22;;;;;;;20.73;11.13;;;;;;;;;;5116396;28;20114;-71
2023/04/18 00:59:08;;;;;;;22.13;11.05;;;;;;;;;;5116763;28;20088;-71
2023/04/18 01:01:53;;;;;;;22.85;11.13;;;;;;;;;;5117851;28;20028;-70
2023/04/18 01:04:41;;;;;;;21.50;11.52;;;;;;;;;;5118197;28;20409;-72
2023/04/18 01:07:27;;;;;;;21.45;11.98;;;;;;;;;;5117973;28;20040;-72
2023/04/18 01:10:13;;;;;;;22.25;12.05;;;;;;;;;;5111363;28;20028;-71
2023/04/18 01:13:12;;;;;;;23.15;12.70;;;;;;;;;;5117471;28;20050;-71
2023/04/18 01:15:58;;;;;;;24.02;12.70;;;;;;;;;;5108941;28;20141;-72
2023/04/18 01:18:45;;;;;;;25.48;14.27;;;;;;;;;;5118093;28;20083;-71
2023/04/18 01:21:32;;;;;;;26.70;12.98;;;;;;;;;;5117634;28;20054;-71
2023/04/18 01:24:18;;;;;;;22.40;12.85;;;;;;;;;;5096827;28;20020;-71
2023/04/18 01:27:04;;;;;;;23.00;13.57;;;;;;;;;;5117359;28;20028;-71
2023/04/18 01:29:50;;;;;;;25.13;13.95;;;;;;;;;;5117453;28;20016;-72
2023/04/18 01:32:35;;;;;;;21.23;13.57;;;;;;;;;;5101899;28;20428;-71
2023/04/18 01:35:21;;;;;;;24.02;14.00;;;;;;;;;;5101657;28;20046;-72
2023/04/18 01:38:06;;;;;;;23.20;13.40;;;;;;;;;;5117140;28;20051;-71
2023/04/18 01:40:52;;;;;;;23.65;12.93;;;;;;;;;;5115671;28;20248;-71
2023/04/18 01:43:38;;;;;;;22.08;11.63;;;;;;;;;;5117308;28;20102;-71
2023/04/18 01:46:23;;;;;;;25.17;12.70;;;;;;;;;;5115293;28;20059;-72
2023/04/18 01:49:09;;;;;;;25.08;12.75;;;;;;;;;;5103259;28;20019;-71
2023/04/18 01:51:54;;;;;;;25.58;12.13;;;;;;;;;;5102232;28;20023;-71
2023/04/18 01:54:40;;;;;;;22.17;12.07;;;;;;;;;;5102143;28;20019;-71
2023/04/18 01:57:25;;;;;;;21.13;12.38;;;;;;;;;;5117572;28;20031;-71
2023/04/18 02:00:11;;;;;;;19.40;12.15;;;;;;;;;;5115595;28;20080;-71
2023/04/18 02:02:57;;;;;;;26.33;12.93;;;;;;;;;;5115387;28;20448;-71
2023/04/18 02:05:43;;;;;;;23.52;11.30;;;;;;;;;;5115114;28;20024;-71
2023/04/18 02:08:29;;;;;;;19.05;11.88;;;;;;;;;;5115010;28;20043;-71
2023/04/18 02:11:15;;;;;;;19.63;11.88;;;;;;;;;;5102915;28;20023;-70
2023/04/18 02:14:00;;;;;;;24.10;11.88;;;;;;;;;;5115792;28;20047;-71
2023/04/18 02:16:46;;;;;;;20.77;12.57;;;;;;;;;;5101079;28;20035;-72
2023/04/18 02:19:32;;;;;;;20.15;11.85;;;;;;;;;;5116199;28;20031;-70
2023/04/18 02:22:17;;;;;;;23.38;11.10;;;;;;;;;;5095715;28;20088;-71
2023/04/18 02:25:03;;;;;;;23.10;12.63;;;;;;;;;;5116410;28;20088;-72
2023/04/18 02:27:49;;;;;;;19.60;11.25;;;;;;;;;;5116283;28;20348;-70
2023/04/18 02:30:34;;;;;;;27.38;11.93;;;;;;;;;;5115223;28;20106;-70
2023/04/18 02:33:20;;;;;;;18.05;10.43;;;;;;;;;;5101747;28;20016;-70
2023/04/18 02:36:05;;;;;;;17.55;10.52;;;;;;;;;;5116258;28;20474;-71
2023/04/18 02:38:51;;;;;;;19.60;10.77;;;;;;;;;;5114703;28;20481;-71
2023/04/18 02:41:38;;;;;;;18.35;10.95;;;;;;;;;;5101426;28;20063;-71
2023/04/18 02:44:23;;;;;;;15.93;9.65;;;;;;;;;;5114570;28;20020;-71
2023/04/18 02:47:09;;;;;;;19.48;10.80;;;;;;;;;;5116245;28;20012;-70
2023/04/18 02:49:55;;;;;;;21.35;10.43;;;;;;;;;;5115986;28;20026;-70
2023/04/18 02:52:41;;;;;;;20.85;10.57;;;;;;;;;;5115933;28;20431;-71
2023/04/18 02:55:27;;;;;;;22.67;10.05;;;;;;;;;;5115816;28;20351;-71
2023/04/18 02:58:12;;;;;;;17.15;10.38;;;;;;;;;;5101748;28;20027;-71
2023/04/18 03:00:58;;;;;;;19.23;10.65;;;;;;;;;;5114309;28;20059;-71
2023/04/18 03:03:43;;;;;;;20.98;10.25;;;;;;;;;;5115333;28;20020;-71
2023/04/18 03:06:30;;;;;;;18.77;10.35;;;;;;;;;;5114331;28;20016;-71
2023/04/18 03:09:16;;;;;;;19.17;10.25;;;;;;;;;;5094502;28;20130;-71
2023/04/18 03:12:01;;;;;;;19.55;9.80;;;;;;;;;;5094957;28;20107;-71
2023/04/18 03:14:47;;;;;;;18.35;9.30;;;;;;;;;;5094782;28;20024;-71
2023/04/18 03:17:32;;;;;;;16.23;8.85;;;;;;;;;;5093845;28;20023;-71
2023/04/18 03:20:18;;;;;;;16.35;9.20;;;;;;;;;;5094431;28;20020;-71
2023/04/18 03:23:04;;;;;;;15.70;8.68;;;;;;;;;;5094225;28;20020;-71
2023/04/18 03:25:49;;;;;;;13.10;8.60;;;;;;;;;;5093516;28;20023;-71
2023/04/18 03:28:35;;;;;;;15.25;8.70;;;;;;;;;;5066333;28;20031;-71
2023/04/18 03:31:20;;;;;;;16.35;9.23;;;;;;;;;;5094002;28;20039;-71
2023/04/18 03:34:06;;;;;;;19.27;8.82;;;;;;;;;;5094272;28;20084;-71
2023/04/18 03:36:52;;;;;;;20.98;9.30;;;;;;;;;;5095257;28;20024;-71
2023/04/18 03:39:38;;;;;;;15.02;9.02;;;;;;;;;;5093777;28;20028;-72
2023/04/18 03:42:23;;;;;;;13.85;8.23;;;;;;;;;;5094357;28;20356;-71
2023/04/18 03:45:09;;;;;;;14.60;8.95;;;;;;;;;;5094055;28;20031;-70
2023/04/18 03:47:55;;;;;;;17.05;9.15;;;;;;;;;;5095008;28;20030;-71
2023/04/18 03:50:40;;;;;;;16.48;9.20;;;;;;;;;;5094716;28;20024;-72
2023/04/18 03:53:26;;;;;;;16.58;10.30;;;;;;;;;;5094212;28;20087;-70
2023/04/18 03:56:12;;;;;;;15.82;9.45;;;;;;;;;;5094839;28;20051;-72
2023/04/18 03:58:57;;;;;;;16.17;9.93;;;;;;;;;;5094735;28;20026;-71
2023/04/18 04:01:43;;;;;;;14.48;10.02;;;;;;;;;;5094718;28;20040;-72
2023/04/18 04:04:28;;;;;;;18.00;10.20;;;;;;;;;;5094185;28;20024;-71
2023/04/18 04:07:14;;;;;;;15.30;10.65;;;;;;;;;;5104548;28;20047;-71
2023/04/18 04:10:00;;;;;;;17.63;11.05;;;;;;;;;;5115392;28;20028;-72
2023/04/18 04:12:45;;;;;;;21.80;11.23;;;;;;;;;;5114284;28;20024;-69
2023/04/18 04:15:31;;;;;;;17.08;11.55;;;;;;;;;;5116116;28;20444;-70
2023/04/18 04:18:17;;;;;;;18.73;11.77;;;;;;;;;;5115704;28;20027;-69
2023/04/18 04:21:04;;;;;;;18.67;11.15;;;;;;;;;;5114947;28;20038;-71
2023/04/18 04:23:49;;;;;;;19.08;11.52;;;;;;;;;;5114648;28;20086;-70
2023/04/18 04:26:35;;;;;;;25.77;11.80;;;;;;;;;;5113848;28;20026;-71
2023/04/18 04:29:22;;;;;;;19.75;12.32;;;;;;;;;;5113783;28;20039;-71
2023/04/18 04:32:08;;;;;;;23.20;12.30;;;;;;;;;;5114013;28;20027;-71
2023/04/18 04:34:55;;;;;;;20.58;12.55;;;;;;;;;;5098826;28;20411;-70
2023/04/18 04:37:41;;;;;;;17.90;13.35;;;;;;;;;;5120598;28;20031;-72
2023/04/18 04:40:26;;;;;;;20.05;13.02;;;;;;;;;;5119105;28;20028;-70
2023/04/18 04:43:14;;;;;;;21.35;13.05;;;;;;;;;;5096803;28;20085;-70
2023/04/18 04:46:01;;;;;;;24.20;13.70;;;;;;;;;;5118353;28;20024;-70
2023/04/18 04:48:48;;;;;;;21.00;13.43;;;;;;;;;;5117676;28;20015;-71
2023/04/18 04:51:34;;;;;;;23.25;13.55;;;;;;;;;;5117175;28;20110;-71
2023/04/18 04:54:20;;;;;;;21.40;14.18;;;;;;;;;;5118346;28;20027;-70
2023/04/18 04:57:05;;;;;;;29.33;16.27;;;;;;;;;;5117329;28;20027;-71
2023/04/18 04:59:51;;;;;;;25.50;15.57;;;;;;;;;;5117787;28;20023;-71
2023/04/18 05:02:36;;;;;;;25.50;16.50;;;;;;;;;;5116184;28;20440;-71
2023/04/18 05:05:22;;;;;;;25.50;15.52;;;;;;;;;;5102156;28;20034;-69
2023/04/18 05:08:08;;;;;;;21.27;13.68;;;;;;;;;;5118684;27;20112;-70
2023/04/18 05:10:54;;;;;;;21.92;14.35;;;;;;;;;;5118589;28;20030;-70
2023/04/18 05:13:39;;;;;;;20.98;13.35;;;;;;;;;;5118135;28;20031;-71
2023/04/18 05:16:25;;;;;;;20.02;14.38;;;;;;;;;;5117795;28;20347;-71
2023/04/18 05:19:11;;;;;;;24.83;14.55;;;;;;;;;;5102159;28;20046;-70
2023/04/18 05:21:56;;;;;;;24.60;15.13;;;;;;;;;;5117098;28;20031;-70
2023/04/18 05:24:42;;;;;;;21.42;14.90;;;;;;;;;;5116044;28;20066;-70
2023/04/18 05:27:27;;;;;;;27.15;15.02;;;;;;;;;;5116988;28;20019;-71
2023/04/18 05:30:13;;;;;;;24.50;15.93;;;;;;;;;;5116262;28;20077;-71
2023/04/18 05:32:59;;;;;;;22.55;14.45;;;;;;;;;;5117037;28;20024;-70
2023/04/18 05:35:44;;;;;;;26.50;15.18;;;;;;;;;;5116982;28;20030;-70
2023/04/18 05:38:30;;;;;;;20.00;14.98;;;;;;;;;;5117590;28;20020;-71
2023/04/18 05:41:15;;;;;;;22.60;14.75;;;;;;;;;;5118349;27;20024;-71
2023/04/18 05:44:01;;;;;;;25.67;14.93;;;;;;;;;;5116693;28;20053;-71
2023/04/18 05:46:50;;;;;;;25.77;16.38;;;;;;;;;;5117719;28;20022;-70
2023/04/18 05:49:35;;;;;;;23.75;15.07;;;;;;;;;;5114572;28;20045;-71
2023/04/18 05:52:21;;;;;;;24.08;15.35;;;;;;;;;;5100916;28;20093;-71
2023/04/18 05:55:07;;;;;;;23.33;14.90;;;;;;;;;;5116777;28;20106;-71
2023/04/18 05:57:52;;;;;;;22.48;15.05;;;;;;;;;;5115247;28;20074;-70
2023/04/18 06:00:38;;;;;;;23.92;15.35;;;;;;;;;;5102321;28;20351;-71
2023/04/18 06:03:23;;;;;;;28.25;16.15;;;;;;;;;;5101768;28;20038;-71
2023/04/18 06:06:09;;;;;;;23.65;16.25;;;;;;;;;;5095229;28;20326;-70
2023/04/18 06:08:55;;;;;;;24.05;15.70;;;;;;;;;;5115007;28;20042;-70
2023/04/18 06:11:40;;;;;;;23.17;14.60;;;;;;;;;;5116661;28;20023;-71
2023/04/18 06:14:27;;;;;;;23.05;14.93;;;;;;;;;;5115102;28;20096;-72
2023/04/18 06:17:12;;;;;;;25.63;15.70;;;;;;;;;;5116192;28;20027;-71
2023/04/18 06:19:58;;;;;;;26.67;16.08;;;;;;;;;;5108688;28;20486;-72
2023/04/18 06:22:44;;;;;;;20.23;14.02;;;;;;;;;;5117041;28;20023;-71
2023/04/18 06:25:29;;;;;;;23.00;14.85;;;;;;;;;;5115433;28;20023;-71
2023/04/18 06:28:15;;;;;;;20.80;13.30;;;;;;;;;;5115900;28;20015;-72
2023/04/18 06:31:01;;;;;;;18.13;11.93;;;;;;;;;;5116211;28;20035;-72
2023/04/18 06:33:47;;;;;;;24.15;14.00;;;;;;;;;;5115852;28;20111;-71
2023/04/18 06:36:32;;;;;;;22.25;11.95;;;;;;;;;;5114874;28;20085;-73
2023/04/18 06:39:18;;;;;;;20.80;13.05;;;;;;;;;;5116483;28;20054;-71
2023/04/18 06:42:03;;;;;;;22.83;12.10;;;;;;;;;;5115668;28;20035;-72
2023/04/18 06:44:49;;;;;;;20.05;11.10;;;;;;;;;;5115701;28;20020;-73
2023/04/18 06:47:35;;;;;;;21.75;11.63;;;;;;;;;;5115140;28;20026;-72
2023/04/18 06:50:21;;;;;;;21.33;10.80;;;;;;;;;;5114607;28;20023;-72
2023/04/18 06:53:06;;;;;;;19.50;10.85;;;;;;;;;;5093409;28;20027;-72
2023/04/18 06:55:52;;;;;;;20.23;10.98;;;;;;;;;;5114955;28;20019;-73
2023/04/18 06:58:38;;;;;;;17.75;10.52;;;;;;;;;;5100759;28;20039;-72
2023/04/18 07:01:23;;;;;;;20.83;11.43;;;;;;;;;;5100361;28;20031;-73
2023/04/18 07:04:09;;;;;;;19.05;11.35;;;;;;;;;;5115518;28;20098;-72
2023/04/18 07:06:54;;;;;;;19.48;11.43;;;;;;;;;;5115199;28;20400;-72
2023/04/18 07:09:40;;;;;;;23.40;11.98;;;;;;;;;;5114887;28;20088;-72
2023/04/18 07:12:26;;;;;;;20.67;11.75;;;;;;;;;;5100718;28;20025;-72
2023/04/18 07:15:11;;;;;;;22.73;12.15;;;;;;;;;;5094004;28;20020;-72
2023/04/18 07:17:57;;;;;;;21.40;11.65;;;;;;;;;;5115864;28;20024;-73
2023/04/18 07:20:43;;;;;;;21.02;11.20;;;;;;;;;;5116021;28;20023;-72
2023/04/18 07:23:28;;;;;;;19.80;11.73;;;;;;;;;;5101230;28;20016;-72
2023/04/18 07:26:14;;;;;;;18.10;10.93;;;;;;;;;;5114344;28;20019;-73
2023/04/18 07:28:59;;;;;;;21.10;12.20;;;;;;;;;;5115027;28;20117;-71
2023/04/18 07:31:46;;;;;;;21.83;14.98;;;;;;;;;;5115891;28;20355;-72
2023/04/18 07:34:32;;;;;;;22.58;13.77;;;;;;;;;;5114259;28;20356;-72
2023/04/18 07:37:20;;;;;;;22.75;12.45;;;;;;;;;;5101113;28;20023;-72
2023/04/18 07:40:05;;;;;;;23.75;12.05;;;;;;;;;;5114563;28;20405;-72
2023/04/18 07:42:52;;;;;;;21.38;11.50;;;;;;;;;;5114749;28;20074;-72
2023/04/18 07:45:37;;;;;;;18.63;11.88;;;;;;;;;;5114149;28;20011;-72
2023/04/18 07:48:26;;;;;;;19.33;11.43;;;;;;;;;;5114804;28;20024;-73
2023/04/18 07:51:11;;;;;;;18.67;11.45;;;;;;;;;;5114726;28;20027;-72
2023/04/18 07:53:58;;;;;;;15.57;10.23;;;;;;;;;;5100544;28;20439;-71
2023/04/18 07:56:43;;;;;;;23.27;11.82;;;;;;;;;;5115186;28;20038;-73
2023/04/18 07:59:31;;;;;;;18.90;11.07;;;;;;;;;;5099183;28;20412;-72
2023/04/18 08:02:16;;;;;;;24.10;12.13;;;;;;;;;;5115720;28;20027;-72
2023/04/18 08:05:02;;;;;;;18.50;11.02;;;;;;;;;;5113504;28;20027;-72
2023/04/18 08:07:47;;;;;;;17.30;11.10;;;;;;;;;;5114060;28;20048;-72
2023/04/18 08:10:33;;;;;;;19.25;11.10;;;;;;;;;;5114327;28;20439;-72
2023/04/18 08:13:19;;;;;;;19.70;11.35;;;;;;;;;;5115989;28;20027;-72
2023/04/18 08:16:04;;;;;;;25.08;11.23;;;;;;;;;;5118379;28;20022;-73
2023/04/18 08:18:51;;;;;;;19.77;10.80;;;;;;;;;;5119487;28;20022;-73
2023/04/18 08:21:38;;;;;;;23.63;10.90;;;;;;;;;;5118825;28;20026;-72
2023/04/18 08:24:23;;;;;;;20.63;10.63;;;;;;;;;;5118310;28;20015;-72
2023/04/18 08:27:09;;;;;;;20.73;10.90;;;;;;;;;;5105201;28;20324;-72
2023/04/18 08:29:55;;;;;;;20.13;9.65;;;;;;;;;;5118803;28;20080;-72
2023/04/18 08:32:40;;;;;;;26.65;11.32;;;;;;;;;;5118903;28;20084;-72
2023/04/18 08:35:26;;;;;;;17.20;10.07;;;;;;;;;;5117463;28;20058;-73
2023/04/18 08:38:12;;;;;;;21.75;10.60;;;;;;;;;;5116929;28;20066;-73
2023/04/18 08:40:57;;;;;;;23.05;9.73;;;;;;;;;;5118314;28;20111;-72
2023/04/18 08:43:46;;;;;;;19.77;10.13;;;;;;;;;;5117351;28;20030;-73
2023/04/18 08:46:34;;;;;;;17.48;9.10;;;;;;;;;;5117543;28;20027;-72
2023/04/18 08:49:21;;;;;;;23.33;10.25;;;;;;;;;;5118449;28;20028;-72
2023/04/18 08:52:10;;;;;;;22.85;10.82;;;;;;;;;;5118202;28;20044;-72
2023/04/18 08:54:56;;;;;;;15.75;9.60;;;;;;;;;;5103337;28;20055;-72
2023/04/18 08:57:42;;;;;;;21.40;10.60;;;;;;;;;;5118580;28;20027;-72
2023/04/18 09:00:28;;;;;;;20.63;9.45;;;;;;;;;;5118051;28;20023;-73
2023/04/18 09:03:14;;;;;;;17.65;9.68;;;;;;;;;;5118140;28;20379;-71
2023/04/18 09:06:07;;;;;;;19.27;10.23;;;;;;;;;;5117473;28;20024;-71
2023/04/18 09:08:57;;;;;;;21.48;10.45;;;;;;;;;;5117157;28;20066;-73
2023/04/18 09:11:43;;;;;;;22.33;12.60;;;;;;;;;;5117735;28;20406;-72
2023/04/18 09:14:29;;;;;;;18.42;9.27;;;;;;;;;;5103689;28;20024;-72
2023/04/18 09:17:29;;;;;;;18.58;8.82;;;;;;;;;;5089052;28;20030;-73
2023/04/18 09:20:24;;;;;;;19.67;8.60;;;;;;;;;;5117475;28;20177;-73
2023/04/18 09:23:13;;;;;;;15.13;8.20;;;;;;;;;;5116694;28;20035;-72
2023/04/18 09:25:59;;;;;;;20.88;8.15;;;;;;;;;;5115521;28;20019;-72
2023/04/18 09:28:51;;;;;;;18.23;8.07;;;;;;;;;;5101627;28;20016;-72
2023/04/18 09:31:51;;;;;;;14.85;9.25;;;;;;;;;;5117967;28;20329;-72
2023/04/18 09:34:40;;;;;;;19.30;8.98;;;;;;;;;;5117010;28;20020;-72
2023/04/18 09:37:26;;;;;;;11.98;7.97;;;;;;;;;;5117715;28;20073;-72
2023/04/18 09:40:17;;;;;;;19.95;8.70;;;;;;;;;;5119422;28;20110;-72
2023/04/18 09:43:17;;;;;;;25.65;8.43;;;;;;;;;;5117442;28;20023;-72
2023/04/18 09:46:03;;;;;;;17.13;8.88;;;;;;;;;;5116316;28;20089;-72
2023/04/18 09:48:48;;;;;;;13.10;8.63;;;;;;;;;;5117413;28;20154;-72
2023/04/18 09:51:34;;;;;;;19.17;8.88;;;;;;;;;;5116032;28;20032;-72
2023/04/18 09:54:22;;;;;;;14.73;8.93;;;;;;;;;;5102018;28;20028;-72
2023/04/18 09:57:09;;;;;;;19.90;8.48;;;;;;;;;;5117433;28;20031;-72
2023/04/18 09:59:58;;;;;;;16.23;8.60;;;;;;;;;;5118519;28;20030;-72
2023/04/18 10:02:52;;;;;;;22.85;9.65;;;;;;;;;;5117835;28;20034;-72
2023/04/18 10:05:38;;;;;;;17.00;8.68;;;;;;;;;;5116262;28;20024;-72
2023/04/18 10:08:24;;;;;;;17.20;9.35;;;;;;;;;;5102602;28;20039;-73
2023/04/18 10:11:10;;;;;;;18.20;9.85;;;;;;;;;;5117767;27;20098;-72
2023/04/18 10:13:57;;;;;;;16.85;8.95;;;;;;;;;;5116942;28;20027;-72
2023/04/18 10:16:44;;;;;;;20.15;9.52;;;;;;;;;;5116521;28;20084;-71
2023/04/18 10:19:30;;;;;;;20.23;9.00;;;;;;;;;;5116971;28;20028;-72
2023/04/18 10:22:25;;;;;;;15.07;8.65;;;;;;;;;;5114961;28;20027;-72
2023/04/18 10:25:11;;;;;;;23.27;8.90;;;;;;;;;;5115898;28;20012;-72
2023/04/18 10:27:57;;;;;;;19.85;9.02;;;;;;;;;;5116724;28;20030;-72
2023/04/18 10:30:43;;;;;;;18.05;9.10;;;;;;;;;;5117087;28;20043;-72
2023/04/18 10:33:33;;;;;;;16.30;8.98;;;;;;;;;;5122329;28;20016;-71
2023/04/18 10:36:19;;;;;;;17.58;8.90;;;;;;;;;;5122497;28;20020;-73
2023/04/18 10:39:27;;;;;;;19.90;9.43;;;;;;;;;;5120123;28;20436;-71
2023/04/18 10:42:12;;;;;;;24.50;10.35;;;;;;;;;;5115291;28;20080;-73
2023/04/18 10:45:17;;;;;;;18.23;9.57;;;;;;;;;;5119314;28;20066;-73
2023/04/18 10:48:23;;;;;;;23.48;8.93;;;;;;;;;;5115386;28;20039;-73
2023/04/18 10:51:17;;;;;;;20.15;8.93;;;;;;;;;;5116618;28;20031;-72
2023/04/18 10:54:06;;;;;;;17.20;8.02;;;;;;;;;;5115840;28;20060;-72
2023/04/18 10:56:52;;;;;;;15.45;7.97;;;;;;;;;;5116378;28;20110;-73
2023/04/18 10:59:42;;;;;;;25.13;7.55;;;;;;;;;;5114985;28;20034;-73
2023/04/18 11:02:32;;;;;;;15.32;8.23;;;;;;;;;;5100489;28;20011;-72
2023/04/18 11:05:18;;;;;;;20.88;8.77;;;;;;;;;;5115995;28;20016;-72
2023/04/18 11:08:04;;;;;;;13.25;8.15;;;;;;;;;;5101375;28;20532;-72
2023/04/18 11:10:56;;;;;;;11.45;7.07;;;;;;;;;;5115511;28;20031;-72
2023/04/18 11:13:57;;;;;;;16.77;8.07;;;;;;;;;;5114433;28;20016;-72
2023/04/18 11:16:42;;;;;;;22.50;8.38;;;;;;;;;;5115797;28;20015;-71
2023/04/18 11:19:28;;;;;;;10.45;7.13;;;;;;;;;;5116811;27;20030;-73
2023/04/18 11:22:14;;;;;;;16.73;7.28;;;;;;;;;;5115847;28;20080;-73
2023/04/18 11:25:06;;;;;;;24.60;7.68;;;;;;;;;;5114335;28;20022;-72
2023/04/18 11:27:51;;;;;;;9.57;6.70;;;;;;;;;;5114747;28;20321;-72
2023/04/18 11:30:38;;;;;;;12.18;7.20;;;;;;;;;;5115626;28;20080;-73
2023/04/18 11:33:26;;;;;;;12.13;7.43;;;;;;;;;;5115181;28;20447;-73
2023/04/18 11:36:11;;;;;;;14.88;7.20;;;;;;;;;;5115616;28;20084;-72
2023/04/18 11:38:57;;;;;;;13.57;7.50;;;;;;;;;;5114169;28;20077;-72
2023/04/18 11:41:49;;;;;;;13.00;7.35;;;;;;;;;;5114191;28;20115;-73
2023/04/18 11:44:38;;;;;;;24.70;8.38;;;;;;;;;;5114456;28;20027;-72
2023/04/18 11:47:28;;;;;;;12.55;7.35;;;;;;;;;;5099386;28;20462;-72
2023/04/18 11:50:14;;;;;;;18.02;7.22;;;;;;;;;;5114206;28;20034;-72
2023/04/18 11:52:59;;;;;;;12.32;8.02;;;;;;;;;;5115399;28;20029;-72
2023/04/18 11:55:54;;;;;;;13.32;7.47;;;;;;;;;;5114050;28;20016;-73
2023/04/18 11:58:41;;;;;;;14.55;7.40;;;;;;;;;;5114254;28;20024;-72
2023/04/18 12:01:27;;;;;;;21.08;7.85;;;;;;;;;;5114518;28;20020;-72
2023/04/18 12:04:13;;;;;;;20.30;7.90;;;;;;;;;;5113860;28;20027;-72
2023/04/18 12:06:59;;;;;;;16.08;7.50;;;;;;;;;;5114408;28;20046;-72
2023/04/18 12:09:45;;;;;;;15.55;8.68;;;;;;;;;;5114864;28;20333;-71
2023/04/18 12:12:31;;;;;;;18.95;8.60;;;;;;;;;;5114393;28;20016;-72
2023/04/18 12:15:20;;;;;;;13.57;7.82;;;;;;;;;;5099981;28;20023;-72
2023/04/18 12:18:07;;;;;;;15.88;7.68;;;;;;;;;;5115607;28;20034;-71
2023/04/18 12:20:57;;;;;;;14.98;8.00;;;;;;;;;;5111562;28;20389;-71
2023/04/18 12:23:44;;;;;;;17.67;7.80;;;;;;;;;;5109022;28;20102;-73
2023/04/18 12:26:30;;;;;;;12.50;7.65;;;;;;;;;;5098293;28;20038;-71
2023/04/18 12:29:16;;;;;;;18.58;7.57;;;;;;;;;;5117636;28;20019;-72
2023/04/18 12:32:01;;;;;;;13.65;7.75;;;;;;;;;;5118532;28;20035;-74
2023/04/18 12:34:47;;;;;;;12.90;7.22;;;;;;;;;;5114027;28;20015;-73
2023/04/18 12:37:33;;;;;;;23.67;8.48;;;;;;;;;;5133622;28;20058;-73
2023/04/18 12:40:19;;;;;;;18.83;7.90;;;;;;;;;;5133715;28;20061;-73
2023/04/18 12:43:05;;;;;;;17.77;7.68;;;;;;;;;;5133959;28;20340;-73
2023/04/18 12:45:51;;;;;;;20.10;7.95;;;;;;;;;;5133315;28;20467;-72
2023/04/18 12:48:36;;;;;;;13.25;7.22;;;;;;;;;;5132912;28;20027;-71
2023/04/18 12:51:22;;;;;;;15.27;7.60;;;;;;;;;;5118578;28;20455;-72
2023/04/18 12:54:08;;;;;;;16.58;7.63;;;;;;;;;;5103693;28;20062;-73
2023/04/18 12:56:53;;;;;;;15.68;7.50;;;;;;;;;;5062771;28;20035;-72
2023/04/18 12:59:39;;;;;;;16.35;7.38;;;;;;;;;;5100532;28;20028;-74
2023/04/18 13:02:27;;;;;;;12.90;7.40;;;;;;;;;;5098729;28;20055;-74
2023/04/18 13:05:14;;;;;;;16.50;7.30;;;;;;;;;;5096224;28;20024;-72
2023/04/18 13:08:00;;;;;;;12.50;7.32;;;;;;;;;;5110173;28;20040;-73
2023/04/18 13:10:46;;;;;;;20.42;8.75;;;;;;;;;;5091998;28;20024;-74
2023/04/18 13:13:39;;;;;;;17.13;7.35;;;;;;;;;;5097802;28;20092;-74
2023/04/18 13:16:27;;;;;;;14.70;7.97;;;;;;;;;;5096140;28;20016;-72
2023/04/18 13:19:13;;;;;;;15.70;7.80;;;;;;;;;;5085509;28;20461;-72
2023/04/18 13:22:01;;;;;;;14.23;7.70;;;;;;;;;;5097956;28;20020;-72
2023/04/18 13:24:47;;;;;;;15.77;8.07;;;;;;;;;;5098304;28;20024;-73
2023/04/18 13:27:33;;;;;;;17.58;7.90;;;;;;;;;;5097210;28;20020;-73
2023/04/18 13:30:18;;;;;;;21.85;8.23;;;;;;;;;;5096513;28;20350;-72
2023/04/18 13:33:04;;;;;;;21.88;8.48;;;;;;;;;;5082059;28;20020;-72
2023/04/18 13:35:50;;;;;;;13.85;7.35;;;;;;;;;;5097905;28;20035;-73
2023/04/18 13:38:35;;;;;;;20.08;7.75;;;;;;;;;;5083219;28;20024;-72
2023/04/18 13:41:22;;;;;;;18.63;7.82;;;;;;;;;;5108349;27;20035;-73
2023/04/18 13:44:07;;;;;;;18.63;8.07;;;;;;;;;;5135499;27;20110;-73
2023/04/18 13:46:53;;;;;;;14.27;7.18;;;;;;;;;;5111165;28;20019;-73
2023/04/18 13:49:39;;;;;;;12.60;6.80;;;;;;;;;;5116264;28;20034;-74
2023/04/18 13:52:25;;;;;;;8.80;6.10;;;;;;;;;;5116536;28;20023;-74
2023/04/18 13:55:11;;;;;;;18.25;7.72;;;;;;;;;;5116652;28;20051;-74
2023/04/18 13:57:57;;;;;;;13.60;7.75;;;;;;;;;;5117254;28;20020;-73
2023/04/18 14:00:42;;;;;;;16.52;7.55;;;;;;;;;;5114866;28;20030;-73
2023/04/18 14:03:28;;;;;;;17.65;8.13;;;;;;;;;;5097061;28;20344;-74
2023/04/18 14:06:16;;;;;;;17.58;7.63;;;;;;;;;;5130888;27;20076;-74
2023/04/18 14:09:02;;;;;;;20.27;7.45;;;;;;;;;;5136236;27;20050;-72
2023/04/18 14:11:49;;;;;;;14.48;6.68;;;;;;;;;;5134338;27;20350;-74
2023/04/18 14:14:35;;;;;;;15.18;6.95;;;;;;;;;;5135403;27;20023;-72
2023/04/18 14:17:21;;;;;;;16.42;7.38;;;;;;;;;;5135709;27;20023;-73
2023/04/18 14:20:07;;;;;;;11.73;7.07;;;;;;;;;;5135333;27;20336;-73
2023/04/18 14:22:53;;;;;;;17.55;7.63;;;;;;;;;;5135643;27;20019;-72
2023/04/18 14:25:38;;;;;;;20.65;8.00;;;;;;;;;;5135435;27;20385;-73
2023/04/18 14:28:24;;;;;;;11.48;6.22;;;;;;;;;;5134973;27;20561;-74
2023/04/18 14:31:09;;;;;;;14.65;7.70;;;;;;;;;;5134627;27;20030;-73
2023/04/18 14:33:55;;;;;;;13.05;7.15;;;;;;;;;;5135072;27;20359;-74
2023/04/18 14:36:41;;;;;;;11.00;7.20;;;;;;;;;;5135452;27;20096;-71
2023/04/18 14:39:26;;;;;;;13.93;6.82;;;;;;;;;;5120538;27;20023;-72
2023/04/18 14:42:12;;;;;;;14.40;7.43;;;;;;;;;;5135140;27;20466;-72
2023/04/18 14:44:57;;;;;;;16.00;7.55;;;;;;;;;;5134521;27;20042;-73
2023/04/18 14:47:43;;;;;;;12.10;6.80;;;;;;;;;;5128401;27;20442;-73
2023/04/18 14:50:29;;;;;;;18.55;6.22;;;;;;;;;;5135395;27;20023;-73
2023/04/18 14:53:15;;;;;;;15.02;7.10;;;;;;;;;;5135223;27;20030;-73
2023/04/18 14:56:01;;;;;;;18.85;7.10;;;;;;;;;;5135103;27;20419;-73
2023/04/18 14:58:46;;;;;;;16.55;7.07;;;;;;;;;;5123629;27;20406;-73
2023/04/18 15:01:32;;;;;;;12.93;6.57;;;;;;;;;;5116209;28;20106;-73
2023/04/18 15:04:17;;;;;;;13.15;7.10;;;;;;;;;;5116684;28;20016;-74
2023/04/18 15:07:03;;;;;;;22.13;7.43;;;;;;;;;;5115691;28;20359;-72
2023/04/18 15:09:50;;;;;;;14.63;7.38;;;;;;;;;;5116284;28;20432;-73
2023/04/18 15:12:35;;;;;;;17.10;8.20;;;;;;;;;;5111532;28;20095;-73
2023/04/18 15:15:21;;;;;;;16.73;7.85;;;;;;;;;;5114918;28;20089;-69
2023/04/18 15:18:07;;;;;;;15.82;7.68;;;;;;;;;;5115323;28;20024;-74
2023/04/18 15:20:52;;;;;;;17.60;6.80;;;;;;;;;;5114989;28;20028;-73
2023/04/18 15:23:38;;;;;;;14.05;7.10;;;;;;;;;;5114518;28;20061;-72
2023/04/18 15:26:24;;;;;;;12.55;7.38;;;;;;;;;;5099183;28;20012;-73
2023/04/18 15:29:10;;;;;;;18.17;7.68;;;;;;;;;;5115229;28;20046;-73
2023/04/18 15:31:56;;;;;;;19.40;8.30;;;;;;;;;;5115461;28;20020;-72
2023/04/18 15:34:41;;;;;;;12.35;8.02;;;;;;;;;;5115169;28;20110;-72
2023/04/18 15:37:30;;;;;;;17.98;8.30;;;;;;;;;;5114764;28;20031;-72
2023/04/18 15:40:17;;;;;;;13.18;7.78;;;;;;;;;;5114117;28;20077;-71
2023/04/18 15:43:03;;;;;;;18.35;8.57;;;;;;;;;;5114380;28;20023;-72
2023/04/18 15:45:49;;;;;;;14.82;7.90;;;;;;;;;;5114139;28;20019;-71
2023/04/18 15:48:35;;;;;;;15.55;7.70;;;;;;;;;;5114826;28;20071;-73
2023/04/18 15:51:21;;;;;;;18.63;7.88;;;;;;;;;;5126048;28;20035;-72
2023/04/18 15:54:06;;;;;;;15.82;7.53;;;;;;;;;;5101164;28;20019;-73
2023/04/18 15:56:52;;;;;;;12.45;7.60;;;;;;;;;;5115894;28;20023;-72
2023/04/18 15:59:37;;;;;;;11.48;7.75;;;;;;;;;;5114847;28;20482;-71
2023/04/18 16:02:23;;;;;;;11.75;7.55;;;;;;;;;;5114148;28;20015;-72
2023/04/18 16:05:11;;;;;;;16.63;7.90;;;;;;;;;;5098763;28;20054;-72
2023/04/18 16:07:58;;;;;;;13.35;7.63;;;;;;;;;;5114269;28;20144;-72
2023/04/18 16:10:43;;;;;;;17.85;8.35;;;;;;;;;;5114310;28;20041;-72
2023/04/18 16:13:29;;;;;;;17.48;8.18;;;;;;;;;;5113852;28;20439;-72
2023/04/18 16:16:15;;;;;;;15.25;8.45;;;;;;;;;;5114942;28;20035;-71